Time;durP1;ratioP1;P1;durP2;ratioP2;P2;SDS_P1;SDS_P2;PMS_P1;PMS_P2;Temp;Humidity;BMP_temperature;BMP_pressure;BME280_temperature;BME280_humidity;BME280_pressure;Samples;Min_cycle;Max_cycle;Signal;HPM_P1;HPM_P2
2023/08/12 00:01:05;;;;;;;2.70;1.38;;;21.90;86.90;;;;;;5091222;28;20059;-73
2023/08/12 00:04:09;;;;;;;3.70;1.35;;;21.90;86.50;;;;;;5091331;28;20042;-73
2023/08/12 00:07:14;;;;;;;1.33;1.20;;;21.90;87.20;;;;;;5091326;28;20055;-73
2023/08/12 00:10:18;;;;;;;1.55;1.20;;;21.90;86.40;;;;;;5091057;28;20039;-72
2023/08/12 00:13:22;;;;;;;1.40;1.10;;;21.90;86.90;;;;;;5090772;28;20051;-73
2023/08/12 00:16:26;;;;;;;3.15;1.20;;;21.90;87.60;;;;;;5091221;28;20051;-72
2023/08/12 00:19:30;;;;;;;1.70;1.30;;;21.90;87.90;;;;;;5090695;28;20047;-73
2023/08/12 00:22:35;;;;;;;2.33;1.25;;;21.80;87.90;;;;;;5090723;28;20055;-73
2023/08/12 00:25:39;;;;;;;2.63;1.20;;;21.70;87.80;;;;;;5085126;28;20058;-72
2023/08/12 00:28:43;;;;;;;2.42;1.27;;;21.70;88.00;;;;;;5090199;28;20498;-72
2023/08/12 00:31:47;;;;;;;3.78;1.33;;;21.70;87.40;;;;;;5085118;28;20391;-72
2023/08/12 00:34:53;;;;;;;1.30;1.02;;;21.70;87.50;;;;;;5078101;28;20043;-72
2023/08/12 00:37:57;;;;;;;1.88;1.15;;;21.60;87.80;;;;;;5077737;28;20047;-72
2023/08/12 00:41:01;;;;;;;1.77;1.33;;;21.60;87.90;;;;;;5090463;28;20399;-72
2023/08/12 00:44:05;;;;;;;1.67;1.23;;;21.60;88.50;;;;;;5090148;28;20063;-72
2023/08/12 00:47:09;;;;;;;3.22;1.20;;;21.60;88.80;;;;;;5078181;28;20493;-72
2023/08/12 00:50:15;;;;;;;1.75;1.40;;;21.60;89.80;;;;;;5090573;28;20518;-72
2023/08/12 00:53:21;;;;;;;2.55;1.27;;;21.60;89.90;;;;;;5089948;28;20403;-72
2023/08/12 00:56:26;;;;;;;1.65;1.20;;;21.50;90.50;;;;;;5078139;28;20050;-72
2023/08/12 00:59:32;;;;;;;1.67;1.40;;;21.40;90.80;;;;;;5078015;28;20303;-73
2023/08/12 01:02:36;;;;;;;7.95;1.35;;;21.20;91.20;;;;;;5090032;28;20047;-72
2023/08/12 01:05:42;;;;;;;1.52;1.13;;;21.10;91.30;;;;;;5078158;28;20051;-72
2023/08/12 01:08:48;;;;;;;2.78;1.50;;;21.10;91.50;;;;;;5090813;28;20198;-72
2023/08/12 01:12:05;;;;;;;4.30;1.60;;;21.00;91.30;;;;;;5077531;28;20047;-72
2023/08/12 01:15:15;;;;;;;2.40;1.50;;;21.10;91.40;;;;;;5090144;28;20047;-72
2023/08/12 01:18:20;;;;;;;3.50;1.35;;;21.10;91.70;;;;;;5090544;28;20059;-72
2023/08/12 01:21:29;;;;;;;2.50;1.67;;;21.20;92.50;;;;;;5090286;28;20051;-72
2023/08/12 01:24:39;;;;;;;4.38;2.08;;;21.10;92.80;;;;;;5069937;28;20499;-72
2023/08/12 01:27:43;;;;;;;3.10;1.90;;;21.10;94.00;;;;;;5057687;28;20475;-73
2023/08/12 01:30:57;;;;;;;3.95;1.75;;;21.10;94.60;;;;;;5070059;28;20043;-73
2023/08/12 01:34:12;;;;;;;4.78;1.40;;;21.00;94.00;;;;;;5069932;28;20043;-73
2023/08/12 01:37:24;;;;;;;2.58;1.55;;;21.00;93.90;;;;;;5069836;28;20044;-72
2023/08/12 01:40:31;;;;;;;3.30;1.75;;;20.90;94.00;;;;;;5057708;28;20047;-73
2023/08/12 01:43:36;;;;;;;3.65;2.15;;;20.90;94.10;;;;;;5056741;28;20031;-73
2023/08/12 01:46:43;;;;;;;2.45;1.25;;;20.90;94.00;;;;;;5084311;28;20047;-73
2023/08/12 01:49:47;;;;;;;2.33;1.50;;;20.90;93.90;;;;;;5090453;28;20047;-72
2023/08/12 01:52:51;;;;;;;3.08;1.52;;;20.80;94.30;;;;;;5077392;28;20394;-72
2023/08/12 01:55:55;;;;;;;3.78;2.25;;;20.70;94.40;;;;;;5066292;28;20055;-73
2023/08/12 01:59:00;;;;;;;5.00;1.80;;;20.60;95.20;;;;;;5080955;28;20039;-73
2023/08/12 02:02:05;;;;;;;3.42;1.70;;;20.60;96.10;;;;;;5069230;28;20063;-73
2023/08/12 02:05:10;;;;;;;4.18;1.95;;;20.50;96.60;;;;;;5074698;28;20047;-72
2023/08/12 02:08:13;;;;;;;2.65;1.88;;;20.60;96.90;;;;;;5079353;28;20051;-72
2023/08/12 02:11:17;;;;;;;4.05;2.35;;;20.70;97.10;;;;;;5093504;28;20051;-71
2023/08/12 02:14:22;;;;;;;4.68;1.80;;;20.70;97.50;;;;;;5093341;28;20043;-73
2023/08/12 02:17:44;;;;;;;4.60;1.83;;;20.70;98.00;;;;;;5060593;28;20043;-73
2023/08/12 02:20:49;;;;;;;2.53;1.80;;;20.60;98.40;;;;;;5061167;28;20043;-72
2023/08/12 02:23:53;;;;;;;4.00;2.03;;;20.50;98.90;;;;;;5072647;28;20502;-72
2023/08/12 02:26:58;;;;;;;3.00;2.00;;;20.30;99.50;;;;;;5060400;28;20044;-72
2023/08/12 02:30:20;;;;;;;3.20;2.08;;;20.30;99.90;;;;;;5060380;28;20043;-72
2023/08/12 02:33:43;;;;;;;4.05;2.28;;;20.20;99.90;;;;;;5069685;28;20043;-72
2023/08/12 02:36:47;;;;;;;3.60;2.20;;;20.20;99.90;;;;;;5072945;28;20043;-72
2023/08/12 02:39:51;;;;;;;3.22;2.35;;;20.10;99.90;;;;;;5072735;28;20044;-71
2023/08/12 02:42:56;;;;;;;2.53;1.95;;;20.10;99.90;;;;;;5072102;28;20048;-72
2023/08/12 02:46:19;;;;;;;3.17;2.35;;;19.90;99.90;;;;;;5072639;28;20044;-72
2023/08/12 02:49:43;;;;;;;3.63;2.08;;;19.80;99.90;;;;;;5060038;28;20055;-72
2023/08/12 02:53:08;;;;;;;5.05;2.22;;;19.80;99.90;;;;;;5071530;28;20051;-72
2023/08/12 02:56:31;;;;;;;3.20;2.33;;;19.80;99.90;;;;;;5062822;28;20399;-72
2023/08/12 02:59:35;;;;;;;3.95;2.30;;;19.70;99.90;;;;;;5066110;28;20046;-72
2023/08/12 03:02:42;;;;;;;4.95;2.30;;;19.70;99.90;;;;;;5086144;28;20390;-72
2023/08/12 03:09:31;;;;;;;4.93;2.30;;;19.60;99.90;;;;;;5091455;28;20405;-72
2023/08/12 03:12:53;;;;;;;4.18;2.40;;;19.40;99.90;;;;;;5091728;28;20047;-71
2023/08/12 03:15:59;;;;;;;5.35;2.67;;;19.30;99.90;;;;;;5079676;28;20506;-72
2023/08/12 03:19:04;;;;;;;5.63;3.60;;;19.20;99.90;;;;;;5090971;28;20497;-72
2023/08/12 03:22:08;;;;;;;4.32;2.85;;;19.00;99.90;;;;;;5079164;28;20040;-72
2023/08/12 03:25:15;;;;;;;3.95;3.13;;;18.90;99.90;;;;;;5090985;28;20046;-72
2023/08/12 03:28:56;;;;;;;5.30;3.60;;;18.80;99.90;;;;;;5092504;28;20513;-72
2023/08/12 03:32:01;;;;;;;6.88;3.15;;;18.80;99.90;;;;;;5079108;28;20051;-72
2023/08/12 03:35:25;;;;;;;4.53;3.75;;;18.70;99.90;;;;;;5091617;28;20055;-72
2023/08/12 03:38:29;;;;;;;4.93;3.10;;;18.70;99.90;;;;;;5079047;28;20063;-73
2023/08/12 03:42:11;;;;;;;3.65;2.65;;;18.60;99.90;;;;;;5091644;28;20050;-72
2023/08/12 03:45:15;;;;;;;4.35;2.78;;;18.60;99.90;;;;;;5079146;28;20051;-73
2023/08/12 03:48:20;;;;;;;3.83;2.83;;;18.60;99.90;;;;;;5091629;28;20511;-72
2023/08/12 03:51:43;;;;;;;4.43;3.10;;;18.70;99.90;;;;;;5081156;28;20501;-72
2023/08/12 03:55:06;;;;;;;3.72;3.00;;;18.70;99.90;;;;;;5091353;28;20039;-72
2023/08/12 03:58:11;;;;;;;5.15;2.53;;;18.70;99.90;;;;;;5078951;28;20043;-72
2023/08/12 04:01:16;;;;;;;7.50;3.03;;;18.70;99.90;;;;;;5078520;28;20269;-73
2023/08/12 04:04:38;;;;;;;3.45;2.63;;;18.70;99.90;;;;;;5081191;28;20528;-73
2023/08/12 04:07:42;;;;;;;4.28;3.55;;;18.60;99.90;;;;;;5078590;28;20059;-73
2023/08/12 04:10:47;;;;;;;8.23;4.07;;;18.70;99.90;;;;;;5070096;28;20043;-72
2023/08/12 04:13:51;;;;;;;5.22;2.58;;;18.70;99.90;;;;;;5070266;28;20047;-72
2023/08/12 04:24:18;;;;;;;4.37;2.90;;;18.70;99.90;;;;;;5090924;28;20524;-71
2023/08/12 04:27:23;;;;;;;5.00;3.00;;;18.70;99.90;;;;;;5091108;28;20043;-71
2023/08/12 04:30:50;;;;;;;6.65;3.13;;;18.80;99.90;;;;;;5091124;28;20043;-72
2023/08/12 04:33:54;;;;;;;8.50;3.80;;;18.80;99.90;;;;;;5078660;28;20035;-72
2023/08/12 04:40:23;;;;;;;4.97;3.17;;;18.80;99.90;;;;;;5078230;28;20051;-72
2023/08/12 04:43:28;;;;;;;6.05;3.25;;;18.80;99.90;;;;;;5077796;28;20055;-72
2023/08/12 04:46:32;;;;;;;4.93;3.05;;;18.80;99.90;;;;;;5090897;28;20051;-72
2023/08/12 04:49:55;;;;;;;5.88;2.90;;;18.80;99.90;;;;;;5071805;28;20050;-72
2023/08/12 04:52:59;;;;;;;12.02;3.35;;;18.80;99.90;;;;;;5090374;28;20055;-71
2023/08/12 04:56:04;;;;;;;5.25;3.30;;;18.90;99.90;;;;;;5090556;28;20039;-72
2023/08/12 04:59:27;;;;;;;6.93;2.95;;;18.90;99.90;;;;;;5066751;28;20046;-72
2023/08/12 05:02:32;;;;;;;7.82;3.35;;;19.00;99.90;;;;;;5066082;28;20407;-72
2023/08/12 05:05:36;;;;;;;6.15;2.58;;;19.00;99.90;;;;;;5090380;28;20055;-72
2023/08/12 05:08:40;;;;;;;4.40;3.10;;;19.00;99.90;;;;;;5077870;28;20047;-72
2023/08/12 05:11:44;;;;;;;6.15;2.72;;;20.20;99.90;;;;;;5077506;28;20103;-72
2023/08/12 05:15:06;;;;;;;5.07;2.85;;;20.30;99.90;;;;;;5090593;28;20039;-72
2023/08/12 05:22:11;;;;;;;5.88;2.97;;;25.90;99.90;;;;;;5090285;28;20502;-73
2023/08/12 05:25:15;;;;;;;5.60;2.95;;;27.90;99.90;;;;;;5090165;28;20047;-73
2023/08/12 05:28:19;;;;;;;3.67;2.55;;;29.30;98.90;;;;;;5090427;28;20051;-74
2023/08/12 05:31:23;;;;;;;4.38;2.60;;;29.80;97.40;;;;;;5082410;28;20039;-72
2023/08/12 05:34:46;;;;;;;3.78;2.40;;;30.70;95.50;;;;;;5074069;28;20054;-73
2023/08/12 05:37:50;;;;;;;5.30;2.70;;;31.30;94.10;;;;;;5073791;28;20510;-72
2023/08/12 05:41:12;;;;;;;6.80;2.47;;;31.60;93.60;;;;;;5073850;28;20059;-73
2023/08/12 05:44:16;;;;;;;4.82;2.30;;;32.10;92.50;;;;;;5073241;28;20502;-73
2023/08/12 05:47:20;;;;;;;5.20;2.60;;;32.60;91.90;;;;;;5073709;28;20047;-72
2023/08/12 05:50:44;;;;;;;9.50;2.83;;;32.70;91.70;;;;;;5073464;28;20043;-74
2023/08/12 05:54:07;;;;;;;5.28;2.60;;;33.00;91.20;;;;;;5073506;28;20067;-74
2023/08/12 05:57:29;;;;;;;3.92;2.15;;;32.80;91.20;;;;;;5073662;28;20107;-73
2023/08/12 06:03:56;;;;;;;8.73;2.00;;;34.00;89.40;;;;;;5060995;28;20051;-73
2023/08/12 06:07:00;;;;;;;3.58;2.40;;;34.30;88.40;;;;;;5073057;28;20055;-72
2023/08/12 06:10:04;;;;;;;7.68;2.50;;;33.40;88.40;;;;;;5073385;28;20044;-73
2023/08/12 06:13:08;;;;;;;2.65;2.20;;;32.10;89.80;;;;;;5072654;28;20044;-73
2023/08/12 06:16:31;;;;;;;6.53;2.35;;;31.40;90.20;;;;;;5072974;28;20040;-72
2023/08/12 06:20:13;;;;;;;2.40;2.08;;;30.40;91.10;;;;;;5073255;28;20047;-72
2023/08/12 06:23:18;;;;;;;3.97;1.90;;;30.20;91.60;;;;;;5072732;28;20043;-72
2023/08/12 06:26:22;;;;;;;4.10;2.00;;;30.50;91.40;;;;;;5073358;28;20051;-72
2023/08/12 06:29:25;;;;;;;4.50;1.80;;;31.00;91.20;;;;;;5072865;28;20063;-71
2023/08/12 06:32:29;;;;;;;3.35;1.77;;;31.60;90.60;;;;;;5072746;28;20496;-72
2023/08/12 06:38:56;;;;;;;2.78;2.25;;;31.00;90.50;;;;;;5072828;28;20510;-72
2023/08/12 06:42:38;;;;;;;4.15;2.28;;;29.70;91.30;;;;;;5071767;28;20048;-73
2023/08/12 06:45:42;;;;;;;3.42;2.10;;;28.20;93.00;;;;;;5073042;28;20051;-72
2023/08/12 06:48:46;;;;;;;4.55;2.28;;;28.00;93.60;;;;;;5059403;28;20403;-72
2023/08/12 06:52:08;;;;;;;3.38;2.22;;;29.30;92.30;;;;;;5072065;28;20502;-72
2023/08/12 06:55:12;;;;;;;4.70;2.08;;;29.50;92.40;;;;;;5072267;28;20388;-73
2023/08/12 06:58:16;;;;;;;2.47;1.92;;;30.30;92.10;;;;;;5059222;28;20506;-72
2023/08/12 07:01:38;;;;;;;3.78;1.80;;;30.10;91.90;;;;;;5071829;28;20435;-72
2023/08/12 07:05:20;;;;;;;2.25;1.70;;;30.30;91.50;;;;;;5072173;28;20413;-73
2023/08/12 07:08:24;;;;;;;4.25;2.08;;;30.10;92.10;;;;;;5071671;28;20388;-73
2023/08/12 07:15:10;;;;;;;8.32;1.70;;;31.20;91.20;;;;;;5071872;28;20047;-72
2023/08/12 07:18:15;;;;;;;4.57;1.70;;;32.10;90.60;;;;;;5071886;28;20043;-73
2023/08/12 07:25:00;;;;;;;1.70;1.52;;;33.80;88.40;;;;;;5071858;28;20494;-72
2023/08/12 07:28:05;;;;;;;3.05;2.08;;;31.50;90.20;;;;;;5071458;28;20398;-72
2023/08/12 07:31:27;;;;;;;3.90;1.90;;;32.40;90.20;;;;;;5059392;28;20048;-73
2023/08/12 07:38:13;;;;;;;2.67;1.83;;;31.90;90.50;;;;;;5071761;28;20043;-72
2023/08/12 07:41:35;;;;;;;3.70;1.70;;;31.70;89.90;;;;;;5061694;28;20043;-73
2023/08/12 07:44:39;;;;;;;3.65;1.70;;;32.90;88.70;;;;;;5071329;28;20493;-73
2023/08/12 07:48:02;;;;;;;2.00;1.50;;;33.40;87.30;;;;;;5070847;28;20036;-73
2023/08/12 07:51:25;;;;;;;3.97;1.70;;;33.20;88.10;;;;;;5071017;28;20047;-72
2023/08/12 07:57:51;;;;;;;1.80;1.52;;;33.80;87.60;;;;;;5058863;28;20051;-73
2023/08/12 08:01:14;;;;;;;1.98;1.70;;;34.50;86.60;;;;;;5087811;28;20110;-72
2023/08/12 08:04:18;;;;;;;3.42;1.90;;;34.40;85.00;;;;;;5091547;28;20608;-72
2023/08/12 08:07:22;;;;;;;4.88;1.50;;;34.80;84.90;;;;;;5091652;28;20047;-72
2023/08/12 08:10:26;;;;;;;2.58;1.50;;;35.80;82.50;;;;;;5091444;28;20530;-73
2023/08/12 08:13:30;;;;;;;3.22;1.65;;;37.10;81.70;;;;;;5089791;28;20039;-72
2023/08/12 08:16:53;;;;;;;3.20;1.70;;;36.60;81.70;;;;;;5090947;28;20230;-72
2023/08/12 08:19:57;;;;;;;2.20;1.55;;;36.30;79.40;;;;;;5090443;28;20051;-71
2023/08/12 08:23:01;;;;;;;2.10;1.65;;;38.30;78.00;;;;;;5087156;28;20051;-71
2023/08/12 08:26:23;;;;;;;2.35;1.52;;;38.30;76.50;;;;;;5090970;28;20051;-71
2023/08/12 08:29:27;;;;;;;5.28;1.50;;;38.60;74.10;;;;;;5090682;28;20509;-71
2023/08/12 08:32:31;;;;;;;2.25;1.40;;;40.00;71.50;;;;;;5090960;28;20410;-71
2023/08/12 08:35:35;;;;;;;2.67;1.75;;;40.50;69.70;;;;;;5090956;28;20055;-71
2023/08/12 08:38:58;;;;;;;2.30;1.45;;;40.20;68.40;;;;;;5090404;28;20047;-72
2023/08/12 08:42:05;;;;;;;2.63;1.40;;;40.10;68.80;;;;;;5077893;28;20395;-71
2023/08/12 08:45:13;;;;;;;2.95;1.20;;;40.90;69.40;;;;;;5090394;28;20055;-71
2023/08/12 08:49:13;;;;;;;5.07;1.70;;;42.30;65.90;;;;;;5090729;28;20043;-71
2023/08/12 08:52:37;;;;;;;1.50;1.27;;;43.40;65.00;;;;;;5090281;28;20394;-72
2023/08/12 08:55:41;;;;;;;1.20;1.10;;;42.60;62.90;;;;;;5090959;28;20051;-71
2023/08/12 08:58:46;;;;;;;4.28;1.52;;;43.60;63.60;;;;;;5090618;28;20047;-71
2023/08/12 09:01:53;;;;;;;1.58;1.08;;;44.70;62.30;;;;;;5077941;28;20051;-72
2023/08/12 09:04:57;;;;;;;3.42;1.02;;;45.70;61.30;;;;;;5091320;28;20039;-72
2023/08/12 09:08:02;;;;;;;2.72;1.25;;;46.30;59.90;;;;;;5095186;28;20039;-72
2023/08/12 09:11:07;;;;;;;1.38;0.95;;;43.40;60.80;;;;;;5095137;28;20043;-72
2023/08/12 09:14:30;;;;;;;1.80;1.30;;;43.30;59.70;;;;;;5093727;28;20047;-71
2023/08/12 09:17:34;;;;;;;4.40;1.17;;;42.50;59.30;;;;;;5087742;28;20035;-72
2023/08/12 09:20:57;;;;;;;2.50;1.30;;;43.30;61.30;;;;;;5094360;28;20047;-72
2023/08/12 09:24:05;;;;;;;2.15;1.10;;;44.10;59.30;;;;;;5094434;28;20039;-72
2023/08/12 09:27:10;;;;;;;2.30;1.20;;;45.70;57.20;;;;;;5094696;28;20106;-73
2023/08/12 09:30:14;;;;;;;3.10;0.70;;;44.00;57.80;;;;;;5094329;28;20066;-71
2023/08/12 09:33:40;;;;;;;1.27;1.13;;;44.40;57.40;;;;;;5094077;28;20042;-72
2023/08/12 09:36:44;;;;;;;1.52;1.10;;;42.30;57.70;;;;;;5094086;28;20047;-71
2023/08/12 09:39:49;;;;;;;2.03;1.10;;;44.40;57.20;;;;;;5093420;28;20051;-71
2023/08/12 09:42:53;;;;;;;1.80;1.10;;;44.10;56.70;;;;;;5093690;28;20416;-72
2023/08/12 09:46:00;;;;;;;1.02;0.90;;;43.60;57.00;;;;;;5081624;28;20493;-73
2023/08/12 09:49:04;;;;;;;2.35;1.30;;;41.90;57.70;;;;;;5094104;28;20051;-72
2023/08/12 09:52:27;;;;;;;1.58;1.08;;;41.10;58.20;;;;;;5093898;28;20051;-71
2023/08/12 09:55:53;;;;;;;1.60;1.00;;;44.60;58.40;;;;;;5093852;28;20047;-71
2023/08/12 09:58:57;;;;;;;1.95;1.48;;;45.40;56.70;;;;;;5093740;28;20486;-72
2023/08/12 10:02:20;;;;;;;2.25;0.93;;;46.30;56.70;;;;;;5093476;28;20119;-73
2023/08/12 10:09:11;;;;;;;0.95;0.85;;;49.30;54.80;;;;;;5093720;28;20051;-72
2023/08/12 10:12:52;;;;;;;1.80;1.20;;;50.80;54.40;;;;;;5093283;28;20066;-73
2023/08/12 10:16:35;;;;;;;2.10;1.00;;;52.30;52.50;;;;;;5093669;28;20046;-73
2023/08/12 10:19:44;;;;;;;1.30;0.90;;;51.80;52.30;;;;;;5093305;28;20039;-72
2023/08/12 10:23:25;;;;;;;0.90;0.70;;;49.30;52.70;;;;;;5093229;28;20035;-73
2023/08/12 10:26:30;;;;;;;2.08;0.90;;;50.30;53.00;;;;;;5093291;28;20501;-74
2023/08/12 10:29:35;;;;;;;3.15;1.02;;;51.40;51.70;;;;;;5092712;28;20047;-73
2023/08/12 10:32:39;;;;;;;2.25;0.70;;;52.30;51.00;;;;;;5074445;28;20043;-74
2023/08/12 10:35:48;;;;;;;1.17;0.80;;;53.10;50.90;;;;;;5093056;28;20494;-73
2023/08/12 10:38:52;;;;;;;1.30;0.90;;;52.60;49.70;;;;;;5092622;28;20399;-73
2023/08/12 10:41:56;;;;;;;2.28;0.70;;;50.50;51.20;;;;;;5092722;28;20612;-74
2023/08/12 10:45:37;;;;;;;0.82;0.80;;;49.90;51.10;;;;;;5093091;28;20044;-73
2023/08/12 10:49:02;;;;;;;2.33;0.98;;;50.20;51.40;;;;;;5092855;28;20055;-74
2023/08/12 10:52:33;;;;;;;1.48;0.80;;;51.00;50.60;;;;;;5092598;28;20055;-74
2023/08/12 10:55:57;;;;;;;1.00;0.90;;;49.30;51.20;;;;;;5092656;28;20478;-73
2023/08/12 11:03:19;;;;;;;2.67;0.95;;;50.80;51.10;;;;;;5024752;28;20398;-75
2023/08/12 11:06:26;;;;;;;2.55;1.10;;;48.60;49.90;;;;;;5092424;28;20051;-74
2023/08/12 11:10:14;;;;;;;3.75;0.95;;;49.30;51.40;;;;;;5092148;28;20126;-74
2023/08/12 11:13:19;;;;;;;3.53;1.10;;;50.60;51.80;;;;;;5092303;28;20055;-73
2023/08/12 11:20:18;;;;;;;1.75;0.90;;;51.30;50.30;;;;;;5090603;28;20047;-74
2023/08/12 11:23:41;;;;;;;3.08;1.10;;;50.40;49.90;;;;;;5092287;28;20047;-73
2023/08/12 11:26:46;;;;;;;1.85;1.00;;;50.40;50.40;;;;;;5092196;28;20039;-73
2023/08/12 11:29:53;;;;;;;2.03;0.80;;;49.50;51.20;;;;;;5091868;28;20429;-74
2023/08/12 11:32:58;;;;;;;2.15;0.90;;;49.40;50.70;;;;;;5091452;28;20047;-74
2023/08/12 11:36:02;;;;;;;1.52;0.93;;;49.20;50.90;;;;;;5092328;28;20058;-75
2023/08/12 11:39:06;;;;;;;1.73;1.00;;;49.90;49.50;;;;;;5092384;28;20126;-74
2023/08/12 11:42:10;;;;;;;3.20;0.90;;;48.50;49.20;;;;;;5091499;28;20047;-74
2023/08/12 11:45:33;;;;;;;1.77;1.10;;;48.40;50.80;;;;;;5086926;28;20043;-74
2023/08/12 11:48:37;;;;;;;1.20;0.90;;;47.40;50.50;;;;;;5085827;28;20517;-72
2023/08/12 11:56:01;;;;;;;3.35;1.05;;;48.10;50.50;;;;;;5091935;28;20039;-73
2023/08/12 11:59:06;;;;;;;1.50;1.00;;;48.00;48.50;;;;;;5091701;28;20035;-73
2023/08/12 12:02:11;;;;;;;4.22;0.90;;;49.00;49.60;;;;;;5090936;28;20039;-73
2023/08/12 12:05:16;;;;;;;2.40;0.80;;;49.40;48.60;;;;;;5091518;28;20043;-74
2023/08/12 12:11:42;;;;;;;1.50;0.85;;;50.60;47.80;;;;;;5091040;28;20054;-74
2023/08/12 12:14:47;;;;;;;2.25;0.90;;;51.60;48.50;;;;;;5091410;28;20062;-73
2023/08/12 12:17:52;;;;;;;1.35;0.80;;;50.70;46.50;;;;;;5091220;28;20383;-73
2023/08/12 12:20:58;;;;;;;2.55;0.95;;;50.40;46.20;;;;;;5091122;28;20046;-73
2023/08/12 12:24:03;;;;;;;1.70;0.80;;;49.90;44.70;;;;;;5090880;28;20046;-73
2023/08/12 12:27:26;;;;;;;1.70;0.90;;;48.70;44.10;;;;;;5091067;28;20051;-74
2023/08/12 12:30:30;;;;;;;4.30;0.95;;;48.30;44.60;;;;;;5090236;28;20502;-74
2023/08/12 12:33:34;;;;;;;1.75;1.00;;;47.20;43.30;;;;;;5066708;28;20039;-74
2023/08/12 12:36:38;;;;;;;2.47;0.90;;;46.00;46.70;;;;;;5078651;28;20087;-74
2023/08/12 12:40:03;;;;;;;1.85;0.93;;;47.10;45.90;;;;;;5090266;28;20039;-76
2023/08/12 12:43:07;;;;;;;1.38;0.98;;;47.30;44.70;;;;;;5077885;28;20059;-74
2023/08/12 12:46:29;;;;;;;2.05;0.90;;;47.40;45.60;;;;;;5090790;28;20505;-76
2023/08/12 12:49:34;;;;;;;3.40;1.10;;;47.50;45.40;;;;;;5090988;28;20529;-75
2023/08/12 12:52:38;;;;;;;2.17;0.95;;;47.80;45.00;;;;;;5089463;28;20051;-73
2023/08/12 12:56:06;;;;;;;2.90;1.02;;;47.80;44.90;;;;;;5091042;28;20394;-74
2023/08/12 12:59:10;;;;;;;;;;;46.80;46.50;;;;;;5091460;28;20506;-73
2023/08/12 13:02:14;;;;;;;2.20;0.98;;;46.30;46.90;;;;;;5077014;28;19919;-72
2023/08/12 13:05:18;;;;;;;3.08;1.15;;;45.30;46.60;;;;;;5091060;28;20058;-74
2023/08/12 13:08:22;;;;;;;1.73;1.15;;;44.00;47.60;;;;;;5090867;28;20047;-73
2023/08/12 13:11:28;;;;;;;1.10;0.90;;;44.10;47.00;;;;;;5090674;28;20514;-74
2023/08/12 13:14:32;;;;;;;1.65;1.02;;;44.30;44.70;;;;;;5090630;28;20039;-73
2023/08/12 13:17:36;;;;;;;3.45;1.20;;;43.20;47.00;;;;;;5090710;28;20046;-76
2023/08/12 13:20:40;;;;;;;3.28;1.17;;;43.10;47.80;;;;;;5090359;28;20047;-75
2023/08/12 13:23:45;;;;;;;1.33;0.90;;;40.80;47.50;;;;;;5085542;28;20407;-76
2023/08/12 13:26:49;;;;;;;4.20;1.20;;;39.50;47.40;;;;;;5090888;28;20036;-75
2023/08/12 13:29:53;;;;;;;2.60;1.20;;;38.70;50.00;;;;;;5091420;28;20043;-74
2023/08/12 13:32:57;;;;;;;3.53;1.30;;;39.60;50.20;;;;;;5090607;28;20062;-75
2023/08/12 13:36:01;;;;;;;2.85;1.17;;;40.30;48.70;;;;;;5078997;28;20059;-72
2023/08/12 13:39:06;;;;;;;2.50;1.20;;;40.60;49.50;;;;;;5090851;28;20043;-75
2023/08/12 13:42:10;;;;;;;2.97;1.20;;;40.30;49.30;;;;;;5090387;28;20063;-75
2023/08/12 13:45:14;;;;;;;5.45;1.40;;;40.50;50.50;;;;;;5090270;28;20043;-75
2023/08/12 13:48:18;;;;;;;1.98;1.10;;;40.60;50.70;;;;;;5090574;28;20055;-74
2023/08/12 13:51:41;;;;;;;2.50;1.00;;;40.50;50.00;;;;;;5089860;28;20043;-77
